SALOAN 191100Z 10005KT 30KM FEW050CU SCT300CI RMK SCT
FCLOAN 190800Z 1909/1918 20005KT 9999 SCT050 TEMPO 1910/1916 FEW050CB SCT100 PROB40 TEMPO 1912/1916
8000 TSRA BKN050 FEW060CB